Time;durP1;ratioP1;P1;durP2;ratioP2;P2;SDS_P1;SDS_P2;PMS_P1;PMS_P2;Temp;Humidity;BMP_temperature;BMP_pressure;BME280_temperature;BME280_humidity;BME280_pressure;Samples;Min_cycle;Max_cycle;Signal;HPM_P1;HPM_P2
2022/07/27 00:01:24;;;;;;;2.67;1.03;;;;;;;;;;4933646;28;20232;-84
2022/07/27 00:03:50;;;;;;;3.37;1.00;;;;;;;;;;4902619;29;20227;-85
2022/07/27 00:06:15;;;;;;;3.33;1.07;;;;;;;;;;4908283;29;20228;-84
2022/07/27 00:08:43;;;;;;;3.38;1.10;;;;;;;;;;4938070;29;20235;-83
2022/07/27 00:11:09;;;;;;;2.30;1.15;;;;;;;;;;4898508;29;20712;-83
2022/07/27 00:13:37;;;;;;;1.37;0.90;;;;;;;;;;4895454;29;20271;-84
2022/07/27 00:16:03;;;;;;;2.13;0.98;;;;;;;;;;4914884;29;20226;-84
2022/07/27 00:18:30;;;;;;;2.70;1.10;;;;;;;;;;4895689;29;20378;-83
2022/07/27 00:20:56;;;;;;;2.92;1.13;;;;;;;;;;4890544;29;20235;-84
2022/07/27 00:23:21;;;;;;;1.35;0.90;;;;;;;;;;4906892;28;20253;-85
2022/07/27 00:25:47;;;;;;;2.83;1.30;;;;;;;;;;4927691;29;20228;-83
2022/07/27 00:28:13;;;;;;;2.50;1.10;;;;;;;;;;4909259;29;20236;-83
2022/07/27 00:30:41;;;;;;;2.00;1.03;;;;;;;;;;4903659;29;20215;-85
2022/07/27 00:33:06;;;;;;;3.85;1.33;;;;;;;;;;4904425;29;20223;-83
2022/07/27 00:35:34;;;;;;;4.07;1.10;;;;;;;;;;4890018;29;20256;-84
2022/07/27 00:38:04;;;;;;;2.23;1.00;;;;;;;;;;4911583;29;20224;-83
2022/07/27 00:40:30;;;;;;;1.93;1.10;;;;;;;;;;4919037;29;20303;-82
2022/07/27 00:42:56;;;;;;;2.17;0.90;;;;;;;;;;4895314;29;20232;-84
2022/07/27 00:45:21;;;;;;;4.00;1.07;;;;;;;;;;4882886;28;20294;-84
2022/07/27 00:47:47;;;;;;;2.08;0.95;;;;;;;;;;4895873;29;20230;-84
2022/07/27 00:50:12;;;;;;;1.90;1.10;;;;;;;;;;4896989;29;20274;-84
2022/07/27 00:52:40;;;;;;;1.63;0.83;;;;;;;;;;4909849;29;20230;-83
2022/07/27 00:55:07;;;;;;;4.40;1.30;;;;;;;;;;4892239;29;20298;-83
2022/07/27 00:57:32;;;;;;;1.63;0.80;;;;;;;;;;4908170;29;20241;-81
2022/07/27 00:59:58;;;;;;;1.90;1.10;;;;;;;;;;4896340;29;20709;-83
2022/07/27 01:02:25;;;;;;;1.23;0.90;;;;;;;;;;4895103;28;20305;-82
2022/07/27 01:04:52;;;;;;;3.20;0.83;;;;;;;;;;4879557;29;20224;-83
2022/07/27 01:07:20;;;;;;;2.20;1.00;;;;;;;;;;4883713;29;20712;-81
2022/07/27 01:09:55;;;;;;;1.73;0.90;;;;;;;;;;4907127;29;20258;-83
2022/07/27 01:12:20;;;;;;;3.33;1.10;;;;;;;;;;4899018;29;20235;-83
2022/07/27 01:14:50;;;;;;;2.63;1.07;;;;;;;;;;4909560;29;20266;-83
2022/07/27 01:17:18;;;;;;;3.63;1.20;;;;;;;;;;4916151;28;20318;-82
2022/07/27 01:19:43;;;;;;;4.20;1.10;;;;;;;;;;4930818;29;20269;-82
2022/07/27 01:22:09;;;;;;;3.28;0.88;;;;;;;;;;4910393;29;20235;-83
2022/07/27 01:24:34;;;;;;;2.10;0.80;;;;;;;;;;4915294;29;20227;-82
2022/07/27 01:27:00;;;;;;;5.37;1.07;;;;;;;;;;4904344;29;20232;-82
2022/07/27 01:29:26;;;;;;;2.00;1.10;;;;;;;;;;4914139;28;20868;-84
2022/07/27 01:31:52;;;;;;;2.60;1.20;;;;;;;;;;4892441;29;20232;-83
2022/07/27 01:34:18;;;;;;;4.20;1.10;;;;;;;;;;4881526;29;20232;-84
2022/07/27 01:36:46;;;;;;;2.50;1.30;;;;;;;;;;4901747;29;20244;-82
2022/07/27 01:39:12;;;;;;;2.33;1.20;;;;;;;;;;4915856;28;20241;-82
2022/07/27 01:41:40;;;;;;;1.40;1.00;;;;;;;;;;4902296;29;20708;-82
2022/07/27 01:44:05;;;;;;;1.93;0.90;;;;;;;;;;4892348;29;20279;-82
2022/07/27 01:46:31;;;;;;;2.67;1.00;;;;;;;;;;4914862;29;20589;-82
2022/07/27 01:48:59;;;;;;;1.20;0.90;;;;;;;;;;4887742;29;20279;-83
2022/07/27 01:51:24;;;;;;;2.87;1.20;;;;;;;;;;4878471;29;20228;-82
2022/07/27 01:53:50;;;;;;;2.73;1.10;;;;;;;;;;4908647;29;21061;-82
2022/07/27 01:56:15;;;;;;;2.67;1.10;;;;;;;;;;4887597;29;20224;-83
2022/07/27 01:58:41;;;;;;;2.27;1.00;;;;;;;;;;4906952;29;20241;-81
2022/07/27 02:01:07;;;;;;;3.00;0.90;;;;;;;;;;4889770;29;20447;-81
2022/07/27 02:03:33;;;;;;;2.73;1.03;;;;;;;;;;4902260;29;20283;-82
2022/07/27 02:06:00;;;;;;;2.27;1.10;;;;;;;;;;4892201;29;20715;-82
2022/07/27 02:08:26;;;;;;;3.70;1.30;;;;;;;;;;4889134;29;20243;-82
2022/07/27 02:13:36;;;;;;;2.83;1.10;;;;;;;;;;4930601;29;20231;-82
2022/07/27 02:16:03;;;;;;;1.57;1.10;;;;;;;;;;4920442;29;20231;-81
2022/07/27 02:18:29;;;;;;;2.00;1.07;;;;;;;;;;4890437;29;20243;-82
2022/07/27 02:20:54;;;;;;;2.23;1.30;;;;;;;;;;4904674;29;20231;-84
2022/07/27 02:23:23;;;;;;;2.40;1.20;;;;;;;;;;4907703;29;20236;-83
2022/07/27 02:25:48;;;;;;;1.90;1.20;;;;;;;;;;4884318;29;20252;-83
2022/07/27 02:28:14;;;;;;;4.33;1.30;;;;;;;;;;4934720;28;20226;-82
2022/07/27 02:30:42;;;;;;;4.17;1.27;;;;;;;;;;4901086;29;20216;-84
2022/07/27 02:33:10;;;;;;;3.27;1.40;;;;;;;;;;4914156;29;20291;-82
2022/07/27 02:35:36;;;;;;;2.63;1.40;;;;;;;;;;4920448;29;20219;-83
2022/07/27 02:38:01;;;;;;;4.03;1.40;;;;;;;;;;4932070;29;20226;-83
2022/07/27 02:40:27;;;;;;;2.40;1.07;;;;;;;;;;4899607;29;20299;-82
2022/07/27 02:42:54;;;;;;;3.13;1.33;;;;;;;;;;4908699;29;20227;-82
2022/07/27 02:45:20;;;;;;;1.67;1.13;;;;;;;;;;4910692;28;20362;-83
2022/07/27 02:47:45;;;;;;;1.37;1.13;;;;;;;;;;4889370;29;20303;-82
2022/07/27 02:50:11;;;;;;;4.37;1.27;;;;;;;;;;4906559;29;20239;-81
2022/07/27 02:52:37;;;;;;;1.30;1.20;;;;;;;;;;4892609;29;20228;-82
2022/07/27 02:55:05;;;;;;;2.50;1.47;;;;;;;;;;4916408;29;20243;-83
2022/07/27 02:58:26;;;;;;;4.53;1.40;;;;;;;;;;4887001;29;20248;-82
2022/07/27 03:00:52;;;;;;;2.13;1.17;;;;;;;;;;4943449;29;20231;-81
2022/07/27 03:03:17;;;;;;;3.00;1.47;;;;;;;;;;4913234;29;20237;-81
2022/07/27 03:05:43;;;;;;;2.40;1.27;;;;;;;;;;4932646;29;20234;-82
2022/07/27 03:08:09;;;;;;;2.77;1.33;;;;;;;;;;4899857;29;20240;-82
2022/07/27 03:10:34;;;;;;;4.93;1.50;;;;;;;;;;4910581;29;20265;-81
2022/07/27 03:13:00;;;;;;;4.87;1.47;;;;;;;;;;4933994;29;20231;-83
2022/07/27 03:15:28;;;;;;;2.53;1.37;;;;;;;;;;4901604;29;20222;-82
2022/07/27 03:17:53;;;;;;;2.50;1.40;;;;;;;;;;4930461;29;20222;-81
2022/07/27 03:20:19;;;;;;;3.10;1.10;;;;;;;;;;4923866;29;20238;-83
2022/07/27 03:22:45;;;;;;;1.87;1.20;;;;;;;;;;4887336;29;20235;-84
2022/07/27 03:25:15;;;;;;;1.40;1.07;;;;;;;;;;4916118;29;20226;-84
2022/07/27 03:27:40;;;;;;;4.00;1.30;;;;;;;;;;4893371;29;20234;-82
2022/07/27 03:30:11;;;;;;;1.97;1.30;;;;;;;;;;4913824;29;20667;-82
2022/07/27 03:32:39;;;;;;;3.20;1.20;;;;;;;;;;4915431;29;20222;-83
2022/07/27 03:35:05;;;;;;;2.73;1.20;;;;;;;;;;4900435;28;20239;-83
2022/07/27 03:37:31;;;;;;;1.87;1.50;;;;;;;;;;4915595;29;20618;-83
2022/07/27 03:43:44;;;;;;;2.70;1.30;;;;;;;;;;4941054;29;20285;-82
2022/07/27 03:46:11;;;;;;;2.23;1.30;;;;;;;;;;4907989;29;20228;-83
2022/07/27 03:48:41;;;;;;;4.03;1.70;;;;;;;;;;4890375;29;20219;-84
2022/07/27 03:51:07;;;;;;;2.10;1.23;;;;;;;;;;4923153;29;20246;-81
2022/07/27 03:53:37;;;;;;;1.57;1.10;;;;;;;;;;4896866;29;20251;-83
2022/07/27 03:56:07;;;;;;;2.57;1.27;;;;;;;;;;4891848;28;20220;-82
2022/07/27 03:58:43;;;;;;;3.30;1.43;;;;;;;;;;4951564;29;20226;-82
2022/07/27 04:01:08;;;;;;;5.37;1.43;;;;;;;;;;4891122;29;20257;-82
2022/07/27 04:03:51;;;;;;;5.07;1.30;;;;;;;;;;4909773;29;20220;-82
2022/07/27 04:07:00;;;;;;;2.07;1.20;;;;;;;;;;4899330;29;20234;-82
2022/07/27 04:09:27;;;;;;;2.23;0.97;;;;;;;;;;4933317;29;20329;-79
2022/07/27 04:11:55;;;;;;;2.17;1.10;;;;;;;;;;4923314;29;20224;-81
2022/07/27 04:14:47;;;;;;;2.73;1.10;;;;;;;;;;4923869;29;20251;-80
2022/07/27 04:17:13;;;;;;;2.50;1.10;;;;;;;;;;4957947;28;20268;-80
2022/07/27 04:19:43;;;;;;;4.43;1.20;;;;;;;;;;4904645;29;20235;-79
2022/07/27 04:22:08;;;;;;;3.97;1.40;;;;;;;;;;4903017;29;20319;-79
2022/07/27 04:24:36;;;;;;;3.23;1.40;;;;;;;;;;4927315;29;20230;-82
2022/07/27 04:27:02;;;;;;;1.33;1.10;;;;;;;;;;4899677;29;20231;-81
2022/07/27 04:29:27;;;;;;;2.13;1.17;;;;;;;;;;4914725;29;20219;-82
2022/07/27 04:32:02;;;;;;;4.87;1.47;;;;;;;;;;4906149;29;20235;-81
2022/07/27 04:34:30;;;;;;;2.53;1.10;;;;;;;;;;4892429;29;20223;-81
2022/07/27 04:36:58;;;;;;;3.03;1.40;;;;;;;;;;4903680;29;20259;-81
2022/07/27 04:39:43;;;;;;;2.80;1.33;;;;;;;;;;4888768;28;20238;-83
2022/07/27 04:42:11;;;;;;;4.23;1.27;;;;;;;;;;4920359;29;20246;-81
2022/07/27 04:44:39;;;;;;;3.77;1.40;;;;;;;;;;4933483;29;20223;-80
2022/07/27 04:47:05;;;;;;;1.87;1.20;;;;;;;;;;4915919;29;20374;-82
2022/07/27 04:49:30;;;;;;;2.70;1.30;;;;;;;;;;4936545;29;20215;-83
2022/07/27 04:51:56;;;;;;;3.17;1.43;;;;;;;;;;4917992;29;20224;-82
2022/07/27 04:54:22;;;;;;;2.03;1.10;;;;;;;;;;4907802;29;20238;-82
2022/07/27 04:56:50;;;;;;;2.93;1.40;;;;;;;;;;4926024;29;20230;-82
2022/07/27 04:59:16;;;;;;;3.33;1.20;;;;;;;;;;4903450;28;20226;-82
2022/07/27 05:04:52;;;;;;;3.13;1.17;;;;;;;;;;4934960;29;20320;-73
2022/07/27 05:07:18;;;;;;;5.97;1.40;;;;;;;;;;4931037;29;20296;-73
2022/07/27 05:09:44;;;;;;;5.28;1.63;;;;;;;;;;4919010;29;20226;-73
2022/07/27 05:12:09;;;;;;;3.03;1.30;;;;;;;;;;4920364;29;20218;-75
2022/07/27 05:14:35;;;;;;;3.80;1.40;;;;;;;;;;4936066;29;20967;-73
2022/07/27 05:17:08;;;;;;;2.85;1.17;;;;;;;;;;4932717;28;20631;-73
2022/07/27 05:19:35;;;;;;;3.97;1.27;;;;;;;;;;4924906;29;20222;-72
2022/07/27 05:22:01;;;;;;;3.20;1.40;;;;;;;;;;4936087;28;20233;-72
2022/07/27 05:24:27;;;;;;;3.38;1.30;;;;;;;;;;4951869;28;20581;-73
2022/07/27 05:26:53;;;;;;;5.28;1.30;;;;;;;;;;4920592;29;20258;-73
2022/07/27 05:29:20;;;;;;;2.60;1.08;;;;;;;;;;4952352;28;20235;-74
2022/07/27 05:31:46;;;;;;;3.53;1.30;;;;;;;;;;4934559;29;20798;-74
2022/07/27 05:34:13;;;;;;;5.93;1.35;;;;;;;;;;4935725;29;20230;-73
2022/07/27 05:36:39;;;;;;;2.60;1.10;;;;;;;;;;4934803;29;20678;-71
2022/07/27 05:39:07;;;;;;;6.63;1.15;;;;;;;;;;4902958;29;20230;-72
2022/07/27 05:41:34;;;;;;;4.40;1.27;;;;;;;;;;4919548;29;20285;-75
2022/07/27 05:44:03;;;;;;;5.43;1.60;;;;;;;;;;4903468;29;20231;-74
2022/07/27 05:46:35;;;;;;;2.75;1.05;;;;;;;;;;4926504;29;20623;-72
2022/07/27 05:49:03;;;;;;;4.50;1.33;;;;;;;;;;4918523;29;20223;-72
2022/07/27 05:51:30;;;;;;;2.85;1.30;;;;;;;;;;4917735;29;20254;-74
2022/07/27 05:53:58;;;;;;;3.28;1.33;;;;;;;;;;4935665;29;20230;-73
2022/07/27 05:56:29;;;;;;;3.42;1.13;;;;;;;;;;4946005;28;20234;-73
2022/07/27 05:58:55;;;;;;;4.75;1.20;;;;;;;;;;4933153;29;20231;-72
2022/07/27 06:01:20;;;;;;;4.70;1.40;;;;;;;;;;4915996;29;20592;-73
2022/07/27 06:03:46;;;;;;;5.78;1.25;;;;;;;;;;4918993;29;20333;-73
2022/07/27 06:09:59;;;;;;;5.07;1.27;;;;;;;;;;4968187;28;20230;-82
2022/07/27 06:12:30;;;;;;;2.38;1.02;;;;;;;;;;4943033;29;20726;-82
2022/07/27 06:14:58;;;;;;;3.60;1.17;;;;;;;;;;4918712;28;20348;-80
2022/07/27 06:17:25;;;;;;;7.95;1.23;;;;;;;;;;4926616;29;20227;-82
2022/07/27 06:19:51;;;;;;;2.43;1.30;;;;;;;;;;4952574;29;20282;-83
2022/07/27 06:22:21;;;;;;;2.37;1.17;;;;;;;;;;4942096;28;20243;-83
2022/07/27 06:25:15;;;;;;;3.67;1.10;;;;;;;;;;4923541;29;20226;-84
2022/07/27 06:27:40;;;;;;;3.28;1.23;;;;;;;;;;4933196;29;20251;-82
2022/07/27 06:30:06;;;;;;;3.67;1.25;;;;;;;;;;4927894;29;20231;-81
2022/07/27 06:32:32;;;;;;;3.03;1.17;;;;;;;;;;4945495;29;20232;-82
2022/07/27 06:35:00;;;;;;;4.82;1.20;;;;;;;;;;4912570;29;20223;-83
2022/07/27 06:37:53;;;;;;;2.97;1.10;;;;;;;;;;4914510;29;20223;-80
2022/07/27 06:44:06;;;;;;;3.45;1.35;;;;;;;;;;4956308;23;20233;-72
2022/07/27 06:46:32;;;;;;;3.45;1.15;;;;;;;;;;4932892;29;20228;-71
2022/07/27 06:49:00;;;;;;;4.78;1.17;;;;;;;;;;4918298;29;20238;-73
2022/07/27 06:51:28;;;;;;;5.97;1.35;;;;;;;;;;4929334;29;20223;-72
2022/07/27 06:53:56;;;;;;;2.50;1.20;;;;;;;;;;4930472;28;20226;-73
2022/07/27 06:56:22;;;;;;;3.25;1.25;;;;;;;;;;4910907;29;20249;-72
2022/07/27 06:58:48;;;;;;;4.60;1.30;;;;;;;;;;4917926;29;20899;-73
2022/07/27 07:01:14;;;;;;;1.63;0.90;;;;;;;;;;4915362;29;20808;-73
2022/07/27 07:03:41;;;;;;;3.35;1.10;;;;;;;;;;4923897;29;20223;-72
2022/07/27 07:06:07;;;;;;;4.32;1.30;;;;;;;;;;4932306;29;20234;-72
2022/07/27 07:08:35;;;;;;;2.55;1.13;;;;;;;;;;4930539;29;20682;-72
2022/07/27 07:11:05;;;;;;;3.65;1.17;;;;;;;;;;4934496;28;20323;-73
2022/07/27 07:13:31;;;;;;;5.70;1.23;;;;;;;;;;4885512;29;20230;-72
2022/07/27 07:15:57;;;;;;;4.30;1.38;;;;;;;;;;4914254;29;20235;-71
2022/07/27 07:18:22;;;;;;;5.28;1.10;;;;;;;;;;4931935;28;20228;-73
2022/07/27 07:20:50;;;;;;;1.77;1.10;;;;;;;;;;4918009;29;20755;-71
2022/07/27 07:23:16;;;;;;;4.22;1.38;;;;;;;;;;4931212;29;20696;-71
2022/07/27 07:25:46;;;;;;;3.03;1.10;;;;;;;;;;4934440;28;20237;-72
2022/07/27 07:28:11;;;;;;;2.92;1.13;;;;;;;;;;4930060;28;20219;-72
2022/07/27 07:30:37;;;;;;;3.33;1.17;;;;;;;;;;4936025;23;20227;-80
2022/07/27 07:33:05;;;;;;;2.22;0.82;;;;;;;;;;4960873;23;20480;-81
2022/07/27 07:35:30;;;;;;;3.40;1.15;;;;;;;;;;4912455;29;20231;-82
2022/07/27 07:37:58;;;;;;;6.75;1.25;;;;;;;;;;4943577;29;20231;-81
2022/07/27 07:40:24;;;;;;;7.47;1.30;;;;;;;;;;4944470;28;20233;-79
2022/07/27 07:42:55;;;;;;;2.15;0.93;;;;;;;;;;4956844;28;20235;-81
2022/07/27 07:45:21;;;;;;;3.05;1.08;;;;;;;;;;4910520;29;20808;-84
2022/07/27 07:47:49;;;;;;;3.15;1.10;;;;;;;;;;4908984;29;20235;-85
2022/07/27 07:50:15;;;;;;;1.85;0.85;;;;;;;;;;4922345;29;20243;-84
2022/07/27 07:52:41;;;;;;;3.88;0.93;;;;;;;;;;4910308;29;20228;-83
2022/07/27 07:55:10;;;;;;;2.30;1.08;;;;;;;;;;4925161;29;20235;-82
2022/07/27 07:57:35;;;;;;;4.07;1.02;;;;;;;;;;4915628;29;20219;-83
2022/07/27 08:00:02;;;;;;;2.30;0.88;;;;;;;;;;4922051;29;20241;-84
2022/07/27 08:02:50;;;;;;;1.27;0.80;;;;;;;;;;4909812;29;20325;-82
2022/07/27 08:05:18;;;;;;;1.75;0.90;;;;;;;;;;4898848;29;20219;-84
2022/07/27 08:07:44;;;;;;;3.50;1.15;;;;;;;;;;4928433;29;20302;-81
2022/07/27 08:10:11;;;;;;;1.95;1.05;;;;;;;;;;4922205;29;20258;-85
2022/07/27 08:12:40;;;;;;;2.47;1.00;;;;;;;;;;4926000;29;20261;-86
2022/07/27 08:15:11;;;;;;;1.95;0.90;;;;;;;;;;4914793;29;20227;-85
2022/07/27 08:17:37;;;;;;;2.55;1.10;;;;;;;;;;4878027;29;20234;-83
2022/07/27 08:20:06;;;;;;;7.32;1.30;;;;;;;;;;4916372;29;20239;-81
2022/07/27 08:22:32;;;;;;;4.93;1.00;;;;;;;;;;4905770;29;20223;-83
2022/07/27 08:24:57;;;;;;;2.25;0.90;;;;;;;;;;4909270;29;20231;-83
2022/07/27 08:27:25;;;;;;;1.52;0.88;;;;;;;;;;4905880;29;20243;-81
2022/07/27 08:29:51;;;;;;;3.38;1.10;;;;;;;;;;4922320;29;20259;-82
2022/07/27 08:32:19;;;;;;;1.85;0.93;;;;;;;;;;4908622;29;20223;-83
2022/07/27 08:34:47;;;;;;;4.03;1.15;;;;;;;;;;4946304;29;20220;-83
2022/07/27 08:37:12;;;;;;;2.08;1.02;;;;;;;;;;4913901;29;20231;-83
2022/07/27 08:39:42;;;;;;;2.42;1.02;;;;;;;;;;4923456;29;20228;-84
2022/07/27 08:42:13;;;;;;;3.13;1.08;;;;;;;;;;4931098;29;20219;-81
2022/07/27 08:44:39;;;;;;;4.47;1.23;;;;;;;;;;4933082;29;20231;-81
2022/07/27 08:47:05;;;;;;;5.60;1.48;;;;;;;;;;4918506;29;20234;-79
2022/07/27 08:49:44;;;;;;;2.35;1.10;;;;;;;;;;4933237;29;20223;-81
2022/07/27 08:52:12;;;;;;;3.15;1.10;;;;;;;;;;4939716;23;20239;-73
2022/07/27 08:54:38;;;;;;;1.85;0.90;;;;;;;;;;4917064;28;20720;-72
2022/07/27 08:57:09;;;;;;;2.92;0.98;;;;;;;;;;4920627;28;20717;-72
2022/07/27 08:59:37;;;;;;;2.78;1.13;;;;;;;;;;4931433;29;20234;-73
2022/07/27 09:02:03;;;;;;;1.83;0.95;;;;;;;;;;4913884;28;20259;-74
2022/07/27 09:04:29;;;;;;;1.60;1.00;;;;;;;;;;4911076;29;20318;-72
2022/07/27 09:06:55;;;;;;;3.72;1.20;;;;;;;;;;4915833;29;20289;-73
2022/07/27 09:09:22;;;;;;;2.70;1.10;;;;;;;;;;4914690;29;20228;-74
2022/07/27 09:12:07;;;;;;;2.97;1.20;;;;;;;;;;4916924;29;20709;-73
2022/07/27 09:14:33;;;;;;;2.63;1.20;;;;;;;;;;4900093;29;20645;-71
2022/07/27 09:17:20;;;;;;;3.42;1.27;;;;;;;;;;4931951;29;20227;-71
2022/07/27 09:19:58;;;;;;;6.18;1.23;;;;;;;;;;4945559;28;20318;-75
2022/07/27 09:22:42;;;;;;;3.95;0.80;;;;;;;;;;4915724;28;20231;-73
2022/07/27 09:25:11;;;;;;;2.88;1.05;;;;;;;;;;4947756;28;20235;-72
2022/07/27 09:27:39;;;;;;;3.58;1.10;;;;;;;;;;4932644;29;20681;-73
2022/07/27 09:30:26;;;;;;;2.38;1.13;;;;;;;;;;4913309;28;20289;-72
2022/07/27 09:32:59;;;;;;;1.85;1.00;;;;;;;;;;4917694;29;20286;-75
2022/07/27 09:35:33;;;;;;;1.88;0.90;;;;;;;;;;4932454;28;20227;-74
2022/07/27 09:38:20;;;;;;;2.70;0.95;;;;;;;;;;4931321;29;20241;-74
2022/07/27 09:41:02;;;;;;;2.85;1.10;;;;;;;;;;4917791;29;20235;-74
2022/07/27 09:43:50;;;;;;;4.88;0.98;;;;;;;;;;4905181;29;20223;-75
2022/07/27 09:46:30;;;;;;;2.35;0.95;;;;;;;;;;4911330;28;20234;-74
2022/07/27 09:48:58;;;;;;;3.60;1.23;;;;;;;;;;4950571;28;20309;-73
2022/07/27 09:51:24;;;;;;;5.00;1.20;;;;;;;;;;4902477;29;20215;-73
2022/07/27 09:53:56;;;;;;;2.50;0.98;;;;;;;;;;4904859;29;20238;-74
2022/07/27 09:56:29;;;;;;;2.38;0.93;;;;;;;;;;4934700;28;20632;-74
2022/07/27 09:59:00;;;;;;;3.10;1.10;;;;;;;;;;4933775;29;20230;-74
2022/07/27 10:01:28;;;;;;;3.30;1.33;;;;;;;;;;4923080;28;20321;-74
2022/07/27 10:03:57;;;;;;;2.38;0.90;;;;;;;;;;4916097;28;20223;-72
2022/07/27 10:06:23;;;;;;;2.33;1.25;;;;;;;;;;4934785;28;20238;-73
2022/07/27 10:08:52;;;;;;;3.25;1.08;;;;;;;;;;4901586;28;20280;-73
2022/07/27 10:11:18;;;;;;;4.82;1.27;;;;;;;;;;4932853;28;20218;-72
2022/07/27 10:13:47;;;;;;;2.60;1.20;;;;;;;;;;4952388;28;20231;-72
2022/07/27 10:16:21;;;;;;;3.00;1.05;;;;;;;;;;4907149;28;20254;-72
2022/07/27 10:18:49;;;;;;;1.88;1.17;;;;;;;;;;4926919;29;20215;-74
2022/07/27 10:21:19;;;;;;;2.78;1.08;;;;;;;;;;4948992;28;20277;-74
2022/07/27 10:24:08;;;;;;;2.85;1.20;;;;;;;;;;4902863;29;20590;-71
2022/07/27 10:26:38;;;;;;;3.15;1.20;;;;;;;;;;4934343;29;20776;-73
2022/07/27 10:29:12;;;;;;;5.47;1.23;;;;;;;;;;4920417;28;20222;-73
2022/07/27 10:31:40;;;;;;;2.70;1.20;;;;;;;;;;4926028;29;21010;-72
2022/07/27 10:34:09;;;;;;;3.90;1.35;;;;;;;;;;4921417;28;20281;-72
2022/07/27 10:36:52;;;;;;;3.33;1.30;;;;;;;;;;4920213;29;20681;-74
2022/07/27 10:39:29;;;;;;;4.45;1.20;;;;;;;;;;4900982;28;20230;-73
2022/07/27 10:42:18;;;;;;;4.00;1.30;;;;;;;;;;4931168;29;20234;-72
2022/07/27 10:45:19;;;;;;;1.98;1.10;;;;;;;;;;4915373;29;20269;-73
2022/07/27 10:47:49;;;;;;;3.13;1.00;;;;;;;;;;4895383;29;20235;-73
2022/07/27 10:50:14;;;;;;;3.65;1.17;;;;;;;;;;4909643;28;20210;-73
2022/07/27 10:53:01;;;;;;;4.13;1.33;;;;;;;;;;4949252;28;20242;-73
2022/07/27 10:55:34;;;;;;;3.88;0.90;;;;;;;;;;4933406;29;20692;-73
2022/07/27 10:58:08;;;;;;;2.22;1.08;;;;;;;;;;4922890;29;20255;-72
2022/07/27 11:00:50;;;;;;;1.73;0.88;;;;;;;;;;4931900;29;20251;-72
2022/07/27 11:03:27;;;;;;;5.57;1.13;;;;;;;;;;4948914;28;20226;-73
2022/07/27 11:05:54;;;;;;;3.90;1.10;;;;;;;;;;4950476;28;20293;-73
2022/07/27 11:08:30;;;;;;;3.83;1.33;;;;;;;;;;4925557;28;20609;-71
2022/07/27 11:10:56;;;;;;;5.25;1.40;;;;;;;;;;4918153;28;20259;-73
2022/07/27 11:13:27;;;;;;;2.50;1.00;;;;;;;;;;4928268;29;20223;-73
2022/07/27 11:16:05;;;;;;;3.42;1.10;;;;;;;;;;4898381;29;20234;-73
2022/07/27 11:18:38;;;;;;;2.45;0.93;;;;;;;;;;4932709;28;20237;-74
2022/07/27 11:21:29;;;;;;;1.83;0.90;;;;;;;;;;4916401;28;20246;-72
2022/07/27 11:24:02;;;;;;;2.10;0.80;;;;;;;;;;4918443;29;20230;-74
2022/07/27 11:26:37;;;;;;;5.00;1.10;;;;;;;;;;4946841;28;20242;-71
2022/07/27 11:29:05;;;;;;;1.42;1.02;;;;;;;;;;4916078;28;20233;-72
2022/07/27 11:31:36;;;;;;;3.70;1.50;;;;;;;;;;4908865;29;20233;-73
2022/07/27 11:34:04;;;;;;;3.03;1.13;;;;;;;;;;4930875;29;20230;-71
2022/07/27 11:36:40;;;;;;;2.45;1.30;;;;;;;;;;4932472;29;20659;-73
2022/07/27 11:39:08;;;;;;;4.97;1.27;;;;;;;;;;4946538;28;20254;-72
2022/07/27 11:41:36;;;;;;;2.42;1.20;;;;;;;;;;4928587;29;20226;-72
2022/07/27 11:44:12;;;;;;;4.43;1.30;;;;;;;;;;4915059;29;21094;-73
2022/07/27 11:46:41;;;;;;;2.78;1.05;;;;;;;;;;4908935;29;20230;-72
2022/07/27 11:49:12;;;;;;;3.28;1.10;;;;;;;;;;4913322;28;20222;-72
2022/07/27 11:51:43;;;;;;;2.50;1.20;;;;;;;;;;4931720;29;20598;-72
2022/07/27 11:54:21;;;;;;;2.78;1.05;;;;;;;;;;4931152;28;20597;-72
2022/07/27 11:56:48;;;;;;;2.53;1.25;;;;;;;;;;4884603;29;20239;-71
2022/07/27 11:59:14;;;;;;;4.43;1.17;;;;;;;;;;4942157;28;20210;-71
2022/07/27 12:01:46;;;;;;;3.83;1.20;;;;;;;;;;4926909;29;20238;-72
2022/07/27 12:04:20;;;;;;;4.55;1.20;;;;;;;;;;4931634;28;20223;-72
2022/07/27 12:07:09;;;;;;;3.63;1.08;;;;;;;;;;4930374;29;20238;-71
2022/07/27 12:09:44;;;;;;;2.95;1.00;;;;;;;;;;4950459;28;20230;-73
2022/07/27 12:12:16;;;;;;;3.40;1.15;;;;;;;;;;4930942;28;20218;-72
2022/07/27 12:14:53;;;;;;;1.45;0.95;;;;;;;;;;4922860;29;20227;-71
2022/07/27 12:17:27;;;;;;;1.25;1.00;;;;;;;;;;4930456;28;20662;-71
2022/07/27 12:19:58;;;;;;;4.55;1.00;;;;;;;;;;4947379;28;20245;-71
2022/07/27 12:22:43;;;;;;;3.45;1.15;;;;;;;;;;4930793;29;20230;-72
2022/07/27 12:25:17;;;;;;;2.70;1.00;;;;;;;;;;4914610;28;20223;-72
2022/07/27 12:28:14;;;;;;;2.33;0.93;;;;;;;;;;4947848;28;20237;-71
2022/07/27 12:30:47;;;;;;;3.47;1.10;;;;;;;;;;4913246;29;20231;-72
2022/07/27 12:33:28;;;;;;;1.23;1.00;;;;;;;;;;4927551;28;20229;-72
2022/07/27 12:35:54;;;;;;;2.20;1.05;;;;;;;;;;4931301;29;20226;-72
2022/07/27 12:38:26;;;;;;;3.13;1.08;;;;;;;;;;4930835;28;20254;-72
2022/07/27 12:40:56;;;;;;;3.22;1.10;;;;;;;;;;4914651;28;20915;-71
2022/07/27 12:43:23;;;;;;;3.33;1.10;;;;;;;;;;4931347;28;20254;-73
2022/07/27 12:45:51;;;;;;;2.33;1.10;;;;;;;;;;4922127;29;20350;-72
2022/07/27 12:48:19;;;;;;;4.13;0.82;;;;;;;;;;4929875;28;20231;-70
2022/07/27 12:50:57;;;;;;;2.72;1.38;;;;;;;;;;4895533;29;20589;-72
2022/07/27 12:53:25;;;;;;;2.80;1.05;;;;;;;;;;4918969;29;20234;-72
2022/07/27 12:55:55;;;;;;;4.20;1.10;;;;;;;;;;4947298;28;20227;-73
2022/07/27 12:58:21;;;;;;;5.05;1.20;;;;;;;;;;4899077;28;20258;-72
2022/07/27 13:00:46;;;;;;;2.55;0.95;;;;;;;;;;4915805;28;20227;-73
2022/07/27 13:03:12;;;;;;;3.25;1.08;;;;;;;;;;4917819;28;20586;-72
2022/07/27 13:05:40;;;;;;;2.35;1.05;;;;;;;;;;4887711;29;20624;-73
2022/07/27 13:08:06;;;;;;;2.97;1.17;;;;;;;;;;4923725;28;20230;-72
2022/07/27 13:10:35;;;;;;;2.78;1.20;;;;;;;;;;4917119;29;20215;-72
2022/07/27 13:13:04;;;;;;;2.40;1.10;;;;;;;;;;4918366;29;20227;-73
2022/07/27 13:15:34;;;;;;;3.47;1.20;;;;;;;;;;4919667;29;20214;-72
2022/07/27 13:18:00;;;;;;;2.33;1.00;;;;;;;;;;4919181;29;20289;-72
2022/07/27 13:20:27;;;;;;;3.47;1.10;;;;;;;;;;4936095;28;20235;-73
2022/07/27 13:22:55;;;;;;;2.15;1.05;;;;;;;;;;4950858;28;20234;-72
2022/07/27 13:25:21;;;;;;;3.03;1.20;;;;;;;;;;4951266;28;20254;-74
2022/07/27 13:27:49;;;;;;;4.88;1.25;;;;;;;;;;4916770;29;20242;-71
2022/07/27 13:30:15;;;;;;;2.65;1.15;;;;;;;;;;4920234;28;20226;-71
2022/07/27 13:32:41;;;;;;;4.15;1.10;;;;;;;;;;4900323;29;20227;-71
2022/07/27 13:35:08;;;;;;;2.58;1.30;;;;;;;;;;4935264;28;20234;-72
2022/07/27 13:37:36;;;;;;;3.08;1.27;;;;;;;;;;4935079;29;20318;-71
2022/07/27 13:40:02;;;;;;;3.20;0.98;;;;;;;;;;4935261;28;20272;-71
2022/07/27 13:42:30;;;;;;;2.67;0.93;;;;;;;;;;4935933;29;20716;-72
2022/07/27 13:45:00;;;;;;;2.03;1.00;;;;;;;;;;4903195;29;20229;-72
2022/07/27 13:47:26;;;;;;;4.20;1.00;;;;;;;;;;4950926;28;20226;-72
2022/07/27 13:49:54;;;;;;;4.82;1.15;;;;;;;;;;4916768;29;20227;-72
2022/07/27 13:52:20;;;;;;;3.83;1.00;;;;;;;;;;4933423;28;20309;-72
2022/07/27 13:54:48;;;;;;;2.55;0.98;;;;;;;;;;4918518;29;20245;-72
2022/07/27 13:57:14;;;;;;;4.00;1.20;;;;;;;;;;4948476;29;20656;-72
2022/07/27 13:59:42;;;;;;;1.75;0.80;;;;;;;;;;4936908;29;20229;-72
2022/07/27 14:02:08;;;;;;;2.95;1.00;;;;;;;;;;4949197;28;20235;-72
2022/07/27 14:04:36;;;;;;;1.42;0.90;;;;;;;;;;4918997;29;20223;-72
2022/07/27 14:07:02;;;;;;;2.97;1.10;;;;;;;;;;4918402;29;20223;-71
2022/07/27 14:12:12;;;;;;;1.67;1.05;;;;;;;;;;4935708;28;20223;-71
2022/07/27 14:14:38;;;;;;;1.00;0.73;;;;;;;;;;4919768;29;20233;-71
2022/07/27 14:17:03;;;;;;;2.40;0.80;;;;;;;;;;4918192;28;20226;-72
2022/07/27 14:19:34;;;;;;;1.52;1.00;;;;;;;;;;4926291;29;20258;-72
2022/07/27 14:21:59;;;;;;;1.50;0.93;;;;;;;;;;4925579;29;20894;-73
2022/07/27 14:24:25;;;;;;;3.67;1.10;;;;;;;;;;4933485;28;20310;-72
2022/07/27 14:26:53;;;;;;;2.88;1.20;;;;;;;;;;4934024;29;20237;-73
2022/07/27 14:29:18;;;;;;;1.98;1.00;;;;;;;;;;4900675;28;20246;-73
2022/07/27 14:31:47;;;;;;;2.47;0.88;;;;;;;;;;4931700;29;20235;-73
2022/07/27 14:34:12;;;;;;;2.30;1.05;;;;;;;;;;4907206;28;20226;-72
2022/07/27 14:36:48;;;;;;;1.77;0.90;;;;;;;;;;4934387;29;20226;-72
2022/07/27 14:39:18;;;;;;;1.70;0.80;;;;;;;;;;4932901;28;20211;-71
2022/07/27 14:41:44;;;;;;;2.17;1.00;;;;;;;;;;4947381;28;20690;-70
2022/07/27 14:44:16;;;;;;;2.95;0.90;;;;;;;;;;4933704;28;20583;-72
2022/07/27 14:46:44;;;;;;;1.88;0.93;;;;;;;;;;4948730;28;20740;-71
2022/07/27 14:49:13;;;;;;;2.58;1.05;;;;;;;;;;4948055;28;20218;-74
2022/07/27 14:51:39;;;;;;;1.65;0.90;;;;;;;;;;4916879;29;20268;-72
2022/07/27 14:54:09;;;;;;;1.80;1.00;;;;;;;;;;4917211;28;20702;-73
2022/07/27 14:56:36;;;;;;;3.25;1.35;;;;;;;;;;4918843;29;20234;-75
2022/07/27 14:59:01;;;;;;;1.30;0.90;;;;;;;;;;4933441;29;20218;-71
2022/07/27 15:01:27;;;;;;;1.25;0.98;;;;;;;;;;4909109;29;20250;-72
2022/07/27 15:03:54;;;;;;;4.70;1.30;;;;;;;;;;4917558;29;20286;-71
2022/07/27 15:06:22;;;;;;;1.70;1.10;;;;;;;;;;4930424;28;20219;-72
2022/07/27 15:08:47;;;;;;;1.95;1.50;;;;;;;;;;4947879;29;20226;-72
2022/07/27 15:11:17;;;;;;;1.08;0.77;;;;;;;;;;4911726;28;20904;-73
2022/07/27 15:13:45;;;;;;;1.30;0.90;;;;;;;;;;4932787;29;20223;-73
2022/07/27 15:16:15;;;;;;;4.85;0.80;;;;;;;;;;4930273;28;20637;-71